LBSF - SOFIA

Compiled: 11:36:43 on 21/04/2018

Latest METAR/SPECI Reports

METAR LBSF 211130Z 09004KT 020V130 9999 FEW065 19/04 Q1021 NOSIG=

Previous reports

METAR LBSF 211100Z 36005KT 290V070 9999 FEW069 19/04 Q1022 NOSIG=
METAR LBSF 211030Z VRB04KT 9999 FEW069 18/03 Q1022 NOSIG=
METAR LBSF 211030Z VRB04KT 9999 FEW069 18/03 Q1022 NOSIG=
METAR LBSF 211000Z 27005KT 240V320 9999 FEW069 19/03 Q1022 NOSIG=

Latest TAF report

TAF LBSF 211100Z 2112/2212 10010KT CAVOK BECMG 2118/2120 VRB04KT BECMG 2208/2210 30010KT=

Valid WARNINGS

No valid warnings for LBSF